sensor_id;sensor_type;location;lat;lon;timestamp;temperature;humidity
14409;DHT22;7289;50.706;4.992;2024-01-27T00:00:11;1.80;99.90
14409;DHT22;7289;50.706;4.992;2024-01-27T00:02:41;1.70;99.90
14409;DHT22;7289;50.706;4.992;2024-01-27T00:05:11;1.70;99.90
14409;DHT22;7289;50.706;4.992;2024-01-27T00:07:40;1.70;99.90
14409;DHT22;7289;50.706;4.992;2024-01-27T00:10:08;1.70;99.90
14409;DHT22;7289;50.706;4.992;2024-01-27T00:12:37;1.70;99.90
14409;DHT22;7289;50.706;4.992;2024-01-27T00:15:07;1.70;99.90
14409;DHT22;7289;50.706;4.992;2024-01-27T00:17:36;1.60;99.90
14409;DHT22;7289;50.706;4.992;2024-01-27T00:20:06;1.50;99.90
14409;DHT22;7289;50.706;4.992;2024-01-27T00:22:36;1.40;99.90
14409;DHT22;7289;50.706;4.992;2024-01-27T00:25:05;1.40;99.90
14409;DHT22;7289;50.706;4.992;2024-01-27T00:27:34;1.30;99.90
14409;DHT22;7289;50.706;4.992;2024-01-27T00:30:03;1.40;99.90
14409;DHT22;7289;50.706;4.992;2024-01-27T00:32:31;1.30;99.90
14409;DHT22;7289;50.706;4.992;2024-01-27T00:35:01;1.40;99.90
14409;DHT22;7289;50.706;4.992;2024-01-27T00:37:30;1.40;99.90
14409;DHT22;7289;50.706;4.992;2024-01-27T00:40:00;1.40;99.90
14409;DHT22;7289;50.706;4.992;2024-01-27T00:42:28;1.30;99.90
14409;DHT22;7289;50.706;4.992;2024-01-27T00:44:56;1.30;99.90
14409;DHT22;7289;50.706;4.992;2024-01-27T00:47:25;1.30;99.90
14409;DHT22;7289;50.706;4.992;2024-01-27T00:49:54;1.30;99.90
14409;DHT22;7289;50.706;4.992;2024-01-27T00:52:22;1.30;99.90
14409;DHT22;7289;50.706;4.992;2024-01-27T00:54:51;1.30;99.90
14409;DHT22;7289;50.706;4.992;2024-01-27T00:57:20;1.30;99.90
14409;DHT22;7289;50.706;4.992;2024-01-27T00:59:49;1.40;99.90
14409;DHT22;7289;50.706;4.992;2024-01-27T01:02:17;1.40;99.90
14409;DHT22;7289;50.706;4.992;2024-01-27T01:04:46;1.40;99.90
14409;DHT22;7289;50.706;4.992;2024-01-27T01:07:15;1.40;99.90
14409;DHT22;7289;50.706;4.992;2024-01-27T01:09:43;1.30;99.90
14409;DHT22;7289;50.706;4.992;2024-01-27T01:12:12;1.30;99.90
14409;DHT22;7289;50.706;4.992;2024-01-27T01:14:43;1.30;99.90
14409;DHT22;7289;50.706;4.992;2024-01-27T01:17:12;1.30;99.90
14409;DHT22;7289;50.706;4.992;2024-01-27T01:19:41;1.40;99.90
14409;DHT22;7289;50.706;4.992;2024-01-27T01:22:09;1.40;99.90
14409;DHT22;7289;50.706;4.992;2024-01-27T01:24:39;1.40;99.90
14409;DHT22;7289;50.706;4.992;2024-01-27T01:27:08;1.30;99.90
14409;DHT22;7289;50.706;4.992;2024-01-27T01:29:36;1.30;99.90
14409;DHT22;7289;50.706;4.992;2024-01-27T01:32:06;1.20;99.90
14409;DHT22;7289;50.706;4.992;2024-01-27T01:34:34;1.20;99.90
14409;DHT22;7289;50.706;4.992;2024-01-27T01:37:03;1.20;99.90
14409;DHT22;7289;50.706;4.992;2024-01-27T01:39:32;1.20;99.90
14409;DHT22;7289;50.706;4.992;2024-01-27T01:42:00;1.20;99.90
14409;DHT22;7289;50.706;4.992;2024-01-27T01:44:30;1.20;99.90
14409;DHT22;7289;50.706;4.992;2024-01-27T01:46:59;1.10;99.90
14409;DHT22;7289;50.706;4.992;2024-01-27T01:49:29;1.00;99.90
14409;DHT22;7289;50.706;4.992;2024-01-27T01:51:58;1.00;99.90
14409;DHT22;7289;50.706;4.992;2024-01-27T01:54:26;0.90;99.90
14409;DHT22;7289;50.706;4.992;2024-01-27T01:56:55;0.90;99.90
14409;DHT22;7289;50.706;4.992;2024-01-27T01:59:26;1.00;99.90
14409;DHT22;7289;50.706;4.992;2024-01-27T02:01:54;1.00;99.90
14409;DHT22;7289;50.706;4.992;2024-01-27T02:04:23;0.90;99.90
14409;DHT22;7289;50.706;4.992;2024-01-27T02:06:53;0.90;99.90
14409;DHT22;7289;50.706;4.992;2024-01-27T02:09:21;0.90;99.90
14409;DHT22;7289;50.706;4.992;2024-01-27T02:11:50;0.80;99.90
14409;DHT22;7289;50.706;4.992;2024-01-27T02:14:19;0.90;99.90
14409;DHT22;7289;50.706;4.992;2024-01-27T02:16:52;0.80;99.90
14409;DHT22;7289;50.706;4.992;2024-01-27T02:19:21;0.80;99.90
14409;DHT22;7289;50.706;4.992;2024-01-27T02:21:49;0.70;99.90
14409;DHT22;7289;50.706;4.992;2024-01-27T02:24:19;0.70;99.90
14409;DHT22;7289;50.706;4.992;2024-01-27T02:26:48;0.60;99.90
14409;DHT22;7289;50.706;4.992;2024-01-27T02:29:16;0.60;99.90
14409;DHT22;7289;50.706;4.992;2024-01-27T02:31:45;0.60;99.90
14409;DHT22;7289;50.706;4.992;2024-01-27T02:34:13;0.50;99.90
14409;DHT22;7289;50.706;4.992;2024-01-27T02:36:42;0.50;99.90
14409;DHT22;7289;50.706;4.992;2024-01-27T02:39:11;0.50;99.90
14409;DHT22;7289;50.706;4.992;2024-01-27T02:41:41;0.50;99.90
14409;DHT22;7289;50.706;4.992;2024-01-27T02:44:09;0.50;99.90
14409;DHT22;7289;50.706;4.992;2024-01-27T02:46:38;0.50;99.90
14409;DHT22;7289;50.706;4.992;2024-01-27T02:49:06;0.50;99.90
14409;DHT22;7289;50.706;4.992;2024-01-27T02:51:35;0.50;99.90
14409;DHT22;7289;50.706;4.992;2024-01-27T02:54:03;0.50;99.90
14409;DHT22;7289;50.706;4.992;2024-01-27T02:56:32;0.50;99.90
14409;DHT22;7289;50.706;4.992;2024-01-27T02:59:02;0.60;99.90
14409;DHT22;7289;50.706;4.992;2024-01-27T03:01:30;0.60;99.90
14409;DHT22;7289;50.706;4.992;2024-01-27T03:03:59;0.60;99.90
14409;DHT22;7289;50.706;4.992;2024-01-27T03:06:27;0.60;99.90
14409;DHT22;7289;50.706;4.992;2024-01-27T03:08:56;0.50;99.90
14409;DHT22;7289;50.706;4.992;2024-01-27T03:11:25;0.50;99.90
14409;DHT22;7289;50.706;4.992;2024-01-27T03:13:53;0.50;99.90
14409;DHT22;7289;50.706;4.992;2024-01-27T03:16:23;0.50;99.90
14409;DHT22;7289;50.706;4.992;2024-01-27T03:18:51;0.50;99.90
14409;DHT22;7289;50.706;4.992;2024-01-27T03:21:20;0.50;99.90
14409;DHT22;7289;50.706;4.992;2024-01-27T03:23:49;0.50;99.90
14409;DHT22;7289;50.706;4.992;2024-01-27T03:26:17;0.50;99.90
14409;DHT22;7289;50.706;4.992;2024-01-27T03:28:46;0.50;99.90
14409;DHT22;7289;50.706;4.992;2024-01-27T03:31:14;0.50;99.90
14409;DHT22;7289;50.706;4.992;2024-01-27T03:33:44;0.50;99.90
14409;DHT22;7289;50.706;4.992;2024-01-27T03:36:13;0.50;99.90
14409;DHT22;7289;50.706;4.992;2024-01-27T03:38:41;0.50;99.90
14409;DHT22;7289;50.706;4.992;2024-01-27T03:41:10;0.50;99.90
14409;DHT22;7289;50.706;4.992;2024-01-27T03:43:38;0.50;99.90
14409;DHT22;7289;50.706;4.992;2024-01-27T03:46:07;0.50;99.90
14409;DHT22;7289;50.706;4.992;2024-01-27T03:48:36;0.50;99.90
14409;DHT22;7289;50.706;4.992;2024-01-27T03:51:06;0.50;99.90
14409;DHT22;7289;50.706;4.992;2024-01-27T03:53:34;0.50;99.90
14409;DHT22;7289;50.706;4.992;2024-01-27T03:56:05;0.50;99.90
14409;DHT22;7289;50.706;4.992;2024-01-27T03:58:33;0.40;99.90
14409;DHT22;7289;50.706;4.992;2024-01-27T04:01:02;0.40;99.90
14409;DHT22;7289;50.706;4.992;2024-01-27T04:03:30;0.40;99.90
14409;DHT22;7289;50.706;4.992;2024-01-27T04:05:59;0.30;99.90
14409;DHT22;7289;50.706;4.992;2024-01-27T04:08:31;0.30;99.90
14409;DHT22;7289;50.706;4.992;2024-01-27T04:10:59;0.30;99.90
14409;DHT22;7289;50.706;4.992;2024-01-27T04:13:28;0.30;99.90
14409;DHT22;7289;50.706;4.992;2024-01-27T04:15:56;0.20;99.90
14409;DHT22;7289;50.706;4.992;2024-01-27T04:18:28;0.20;99.90
14409;DHT22;7289;50.706;4.992;2024-01-27T04:20:57;0.20;99.90
14409;DHT22;7289;50.706;4.992;2024-01-27T04:23:25;0.20;99.90
14409;DHT22;7289;50.706;4.992;2024-01-27T04:25:55;0.20;99.90
14409;DHT22;7289;50.706;4.992;2024-01-27T04:28:23;0.10;99.90
14409;DHT22;7289;50.706;4.992;2024-01-27T04:30:52;0.10;99.90
14409;DHT22;7289;50.706;4.992;2024-01-27T04:33:20;0.00;99.90
14409;DHT22;7289;50.706;4.992;2024-01-27T04:35:49;0.00;99.90
14409;DHT22;7289;50.706;4.992;2024-01-27T04:38:16;0.00;99.90
14409;DHT22;7289;50.706;4.992;2024-01-27T04:40:45;0.10;99.90
14409;DHT22;7289;50.706;4.992;2024-01-27T04:43:16;0.10;99.90
14409;DHT22;7289;50.706;4.992;2024-01-27T04:45:45;0.10;99.90
14409;DHT22;7289;50.706;4.992;2024-01-27T04:48:13;0.10;99.90
14409;DHT22;7289;50.706;4.992;2024-01-27T04:50:42;0.10;99.90
14409;DHT22;7289;50.706;4.992;2024-01-27T04:53:10;0.10;99.90
14409;DHT22;7289;50.706;4.992;2024-01-27T04:55:39;0.20;99.90
14409;DHT22;7289;50.706;4.992;2024-01-27T04:58:07;0.10;99.90
14409;DHT22;7289;50.706;4.992;2024-01-27T05:00:37;0.10;99.90
14409;DHT22;7289;50.706;4.992;2024-01-27T05:03:06;0.10;99.90
14409;DHT22;7289;50.706;4.992;2024-01-27T05:05:41;0.20;99.90
14409;DHT22;7289;50.706;4.992;2024-01-27T05:08:10;0.20;99.90
14409;DHT22;7289;50.706;4.992;2024-01-27T05:10:38;0.20;99.90
14409;DHT22;7289;50.706;4.992;2024-01-27T05:13:07;0.20;99.90
14409;DHT22;7289;50.706;4.992;2024-01-27T05:15:36;0.10;99.90
14409;DHT22;7289;50.706;4.992;2024-01-27T05:18:06;0.10;99.90
14409;DHT22;7289;50.706;4.992;2024-01-27T05:20:34;0.20;99.90
14409;DHT22;7289;50.706;4.992;2024-01-27T05:23:03;0.20;99.90
14409;DHT22;7289;50.706;4.992;2024-01-27T05:25:31;0.20;99.90
14409;DHT22;7289;50.706;4.992;2024-01-27T05:28:00;0.20;99.90
14409;DHT22;7289;50.706;4.992;2024-01-27T05:30:28;0.20;99.90
14409;DHT22;7289;50.706;4.992;2024-01-27T05:32:58;0.20;99.90
14409;DHT22;7289;50.706;4.992;2024-01-27T05:35:27;0.20;99.90
14409;DHT22;7289;50.706;4.992;2024-01-27T05:37:55;0.20;99.90
14409;DHT22;7289;50.706;4.992;2024-01-27T05:40:24;0.20;99.90
14409;DHT22;7289;50.706;4.992;2024-01-27T05:42:52;0.20;99.90
14409;DHT22;7289;50.706;4.992;2024-01-27T05:45:21;0.20;99.90
14409;DHT22;7289;50.706;4.992;2024-01-27T05:47:50;0.20;99.90
14409;DHT22;7289;50.706;4.992;2024-01-27T05:50:20;0.30;99.90
14409;DHT22;7289;50.706;4.992;2024-01-27T05:52:48;0.30;99.90
14409;DHT22;7289;50.706;4.992;2024-01-27T05:55:17;0.20;99.90
14409;DHT22;7289;50.706;4.992;2024-01-27T05:57:45;0.20;99.90
14409;DHT22;7289;50.706;4.992;2024-01-27T06:00:14;0.30;99.90
14409;DHT22;7289;50.706;4.992;2024-01-27T06:02:42;0.20;99.90
14409;DHT22;7289;50.706;4.992;2024-01-27T06:05:11;0.30;99.90
14409;DHT22;7289;50.706;4.992;2024-01-27T06:07:41;0.30;99.90
14409;DHT22;7289;50.706;4.992;2024-01-27T06:10:10;0.30;99.90
14409;DHT22;7289;50.706;4.992;2024-01-27T06:12:39;0.30;99.90
14409;DHT22;7289;50.706;4.992;2024-01-27T06:15:09;0.30;99.90
14409;DHT22;7289;50.706;4.992;2024-01-27T06:17:38;0.30;99.90
14409;DHT22;7289;50.706;4.992;2024-01-27T06:20:08;0.30;99.90
14409;DHT22;7289;50.706;4.992;2024-01-27T06:22:36;0.30;99.90
14409;DHT22;7289;50.706;4.992;2024-01-27T06:25:08;0.30;99.90
14409;DHT22;7289;50.706;4.992;2024-01-27T06:27:37;0.30;99.90
14409;DHT22;7289;50.706;4.992;2024-01-27T06:30:09;0.30;99.90
14409;DHT22;7289;50.706;4.992;2024-01-27T06:32:38;0.40;99.90
14409;DHT22;7289;50.706;4.992;2024-01-27T06:35:07;0.40;99.90
14409;DHT22;7289;50.706;4.992;2024-01-27T06:37:35;0.30;99.90
14409;DHT22;7289;50.706;4.992;2024-01-27T06:40:07;0.40;99.90
14409;DHT22;7289;50.706;4.992;2024-01-27T06:42:36;0.40;99.90
14409;DHT22;7289;50.706;4.992;2024-01-27T06:45:05;0.40;99.90
14409;DHT22;7289;50.706;4.992;2024-01-27T06:47:33;0.30;99.90
14409;DHT22;7289;50.706;4.992;2024-01-27T06:50:02;0.30;99.90
14409;DHT22;7289;50.706;4.992;2024-01-27T06:52:30;0.30;99.90
14409;DHT22;7289;50.706;4.992;2024-01-27T06:54:59;0.20;99.90
14409;DHT22;7289;50.706;4.992;2024-01-27T06:57:29;0.20;99.90
14409;DHT22;7289;50.706;4.992;2024-01-27T06:59:57;0.30;99.90
14409;DHT22;7289;50.706;4.992;2024-01-27T07:02:26;0.30;99.90
14409;DHT22;7289;50.706;4.992;2024-01-27T07:04:55;0.20;99.90
14409;DHT22;7289;50.706;4.992;2024-01-27T07:07:25;0.30;99.90
14409;DHT22;7289;50.706;4.992;2024-01-27T07:09:55;0.30;99.90
14409;DHT22;7289;50.706;4.992;2024-01-27T07:12:24;0.20;99.90
14409;DHT22;7289;50.706;4.992;2024-01-27T07:14:54;0.20;99.90
14409;DHT22;7289;50.706;4.992;2024-01-27T07:17:24;0.20;99.90
14409;DHT22;7289;50.706;4.992;2024-01-27T07:19:53;0.20;99.90
14409;DHT22;7289;50.706;4.992;2024-01-27T07:22:22;0.20;99.90
14409;DHT22;7289;50.706;4.992;2024-01-27T07:24:52;0.10;99.90
14409;DHT22;7289;50.706;4.992;2024-01-27T07:27:20;0.20;99.90
14409;DHT22;7289;50.706;4.992;2024-01-27T07:29:49;0.20;99.90
14409;DHT22;7289;50.706;4.992;2024-01-27T07:32:19;0.10;99.90
14409;DHT22;7289;50.706;4.992;2024-01-27T07:34:48;0.10;99.90
14409;DHT22;7289;50.706;4.992;2024-01-27T07:37:16;0.20;99.90
14409;DHT22;7289;50.706;4.992;2024-01-27T07:39:46;0.20;99.90
14409;DHT22;7289;50.706;4.992;2024-01-27T07:42:15;0.10;99.90
14409;DHT22;7289;50.706;4.992;2024-01-27T07:44:44;0.20;99.90
14409;DHT22;7289;50.706;4.992;2024-01-27T07:47:13;0.20;99.90
14409;DHT22;7289;50.706;4.992;2024-01-27T07:49:42;0.20;99.90
14409;DHT22;7289;50.706;4.992;2024-01-27T07:52:12;0.30;99.90
14409;DHT22;7289;50.706;4.992;2024-01-27T07:54:40;0.30;99.90
14409;DHT22;7289;50.706;4.992;2024-01-27T07:57:09;0.40;99.90
14409;DHT22;7289;50.706;4.992;2024-01-27T07:59:39;0.40;99.90
14409;DHT22;7289;50.706;4.992;2024-01-27T08:02:07;0.40;99.90
14409;DHT22;7289;50.706;4.992;2024-01-27T08:04:37;0.40;99.90
14409;DHT22;7289;50.706;4.992;2024-01-27T08:07:07;0.50;99.90
14409;DHT22;7289;50.706;4.992;2024-01-27T08:09:37;0.60;99.90
14409;DHT22;7289;50.706;4.992;2024-01-27T08:12:06;0.60;99.90
14409;DHT22;7289;50.706;4.992;2024-01-27T08:14:35;0.70;99.90
14409;DHT22;7289;50.706;4.992;2024-01-27T08:17:04;0.80;99.90
14409;DHT22;7289;50.706;4.992;2024-01-27T08:19:32;0.80;99.90
14409;DHT22;7289;50.706;4.992;2024-01-27T08:22:01;0.90;99.90
14409;DHT22;7289;50.706;4.992;2024-01-27T08:24:31;1.00;99.90
14409;DHT22;7289;50.706;4.992;2024-01-27T08:27:00;1.00;99.90
14409;DHT22;7289;50.706;4.992;2024-01-27T08:29:29;1.10;99.90
14409;DHT22;7289;50.706;4.992;2024-01-27T08:31:57;1.20;99.90
14409;DHT22;7289;50.706;4.992;2024-01-27T08:34:26;1.30;99.90
14409;DHT22;7289;50.706;4.992;2024-01-27T08:37:02;1.30;99.90
14409;DHT22;7289;50.706;4.992;2024-01-27T08:39:31;1.30;99.90
14409;DHT22;7289;50.706;4.992;2024-01-27T08:42:00;1.50;99.90
14409;DHT22;7289;50.706;4.992;2024-01-27T08:44:28;1.50;99.90
14409;DHT22;7289;50.706;4.992;2024-01-27T08:46:57;1.50;99.90
14409;DHT22;7289;50.706;4.992;2024-01-27T08:49:28;1.60;99.90
14409;DHT22;7289;50.706;4.992;2024-01-27T08:51:57;1.70;99.90
14409;DHT22;7289;50.706;4.992;2024-01-27T08:54:25;1.80;99.90
14409;DHT22;7289;50.706;4.992;2024-01-27T08:56:55;1.80;99.90
14409;DHT22;7289;50.706;4.992;2024-01-27T08:59:24;1.90;99.90
14409;DHT22;7289;50.706;4.992;2024-01-27T09:01:52;1.90;99.90
14409;DHT22;7289;50.706;4.992;2024-01-27T09:04:21;1.90;99.90
14409;DHT22;7289;50.706;4.992;2024-01-27T09:06:49;2.00;99.90
14409;DHT22;7289;50.706;4.992;2024-01-27T09:09:18;2.10;99.90
14409;DHT22;7289;50.706;4.992;2024-01-27T09:11:46;2.20;99.90
14409;DHT22;7289;50.706;4.992;2024-01-27T09:14:17;2.20;99.90
14409;DHT22;7289;50.706;4.992;2024-01-27T09:16:46;2.30;99.90
14409;DHT22;7289;50.706;4.992;2024-01-27T09:19:14;2.30;99.90
14409;DHT22;7289;50.706;4.992;2024-01-27T09:21:43;2.50;99.90
14409;DHT22;7289;50.706;4.992;2024-01-27T09:24:11;2.50;99.90
14409;DHT22;7289;50.706;4.992;2024-01-27T09:26:42;2.60;99.90
14409;DHT22;7289;50.706;4.992;2024-01-27T09:29:11;2.70;99.90
14409;DHT22;7289;50.706;4.992;2024-01-27T09:31:42;2.80;99.90
14409;DHT22;7289;50.706;4.992;2024-01-27T09:34:11;2.90;99.90
14409;DHT22;7289;50.706;4.992;2024-01-27T09:36:39;3.00;99.90
14409;DHT22;7289;50.706;4.992;2024-01-27T09:39:08;3.10;99.90
14409;DHT22;7289;50.706;4.992;2024-01-27T09:41:36;3.30;99.90
14409;DHT22;7289;50.706;4.992;2024-01-27T09:44:05;3.40;99.90
14409;DHT22;7289;50.706;4.992;2024-01-27T09:46:34;3.50;99.90
14409;DHT22;7289;50.706;4.992;2024-01-27T09:49:04;3.60;99.90
14409;DHT22;7289;50.706;4.992;2024-01-27T09:51:32;3.70;99.90
14409;DHT22;7289;50.706;4.992;2024-01-27T09:54:01;3.80;99.90
14409;DHT22;7289;50.706;4.992;2024-01-27T09:56:31;3.90;99.90
14409;DHT22;7289;50.706;4.992;2024-01-27T09:59:00;4.00;99.90
14409;DHT22;7289;50.706;4.992;2024-01-27T10:01:29;4.10;99.90
14409;DHT22;7289;50.706;4.992;2024-01-27T10:03:59;4.20;99.90
14409;DHT22;7289;50.706;4.992;2024-01-27T10:06:29;4.30;99.90
14409;DHT22;7289;50.706;4.992;2024-01-27T10:08:58;4.40;99.90
14409;DHT22;7289;50.706;4.992;2024-01-27T10:11:27;4.50;99.90
14409;DHT22;7289;50.706;4.992;2024-01-27T10:13:57;4.60;99.90
14409;DHT22;7289;50.706;4.992;2024-01-27T10:16:27;4.70;99.90
14409;DHT22;7289;50.706;4.992;2024-01-27T10:19:02;5.00;99.90
14409;DHT22;7289;50.706;4.992;2024-01-27T10:21:32;5.10;99.90
14409;DHT22;7289;50.706;4.992;2024-01-27T10:24:02;5.20;99.90
14409;DHT22;7289;50.706;4.992;2024-01-27T10:26:33;5.30;99.90
14409;DHT22;7289;50.706;4.992;2024-01-27T10:29:02;5.40;99.90
14409;DHT22;7289;50.706;4.992;2024-01-27T10:31:32;5.50;99.90
14409;DHT22;7289;50.706;4.992;2024-01-27T10:34:01;5.50;99.90
14409;DHT22;7289;50.706;4.992;2024-01-27T10:36:42;5.70;99.90
14409;DHT22;7289;50.706;4.992;2024-01-27T10:39:17;5.90;99.90
14409;DHT22;7289;50.706;4.992;2024-01-27T10:41:46;5.90;99.90
14409;DHT22;7289;50.706;4.992;2024-01-27T10:44:16;6.10;99.90
14409;DHT22;7289;50.706;4.992;2024-01-27T10:46:46;6.20;99.90
14409;DHT22;7289;50.706;4.992;2024-01-27T10:49:17;6.40;99.90
14409;DHT22;7289;50.706;4.992;2024-01-27T10:51:52;6.40;99.90
14409;DHT22;7289;50.706;4.992;2024-01-27T10:54:24;6.50;99.90
14409;DHT22;7289;50.706;4.992;2024-01-27T10:56:55;6.70;99.90
14409;DHT22;7289;50.706;4.992;2024-01-27T10:59:27;6.80;99.90
14409;DHT22;7289;50.706;4.992;2024-01-27T11:01:56;6.80;99.90
14409;DHT22;7289;50.706;4.992;2024-01-27T11:04:26;6.80;99.90
14409;DHT22;7289;50.706;4.992;2024-01-27T11:06:58;6.80;99.90
14409;DHT22;7289;50.706;4.992;2024-01-27T11:09:28;6.80;99.90
14409;DHT22;7289;50.706;4.992;2024-01-27T11:11:58;6.80;99.90
14409;DHT22;7289;50.706;4.992;2024-01-27T11:14:27;6.80;99.90
14409;DHT22;7289;50.706;4.992;2024-01-27T11:16:56;6.80;99.90
14409;DHT22;7289;50.706;4.992;2024-01-27T11:19:26;6.80;99.90
14409;DHT22;7289;50.706;4.992;2024-01-27T11:22:02;6.70;99.90
14409;DHT22;7289;50.706;4.992;2024-01-27T11:24:31;6.80;99.90
14409;DHT22;7289;50.706;4.992;2024-01-27T11:27:02;6.80;99.90
14409;DHT22;7289;50.706;4.992;2024-01-27T11:29:31;6.70;99.90
14409;DHT22;7289;50.706;4.992;2024-01-27T11:32:01;6.80;99.90
14409;DHT22;7289;50.706;4.992;2024-01-27T11:34:44;6.90;99.90
14409;DHT22;7289;50.706;4.992;2024-01-27T11:37:16;7.00;99.90
14409;DHT22;7289;50.706;4.992;2024-01-27T11:39:47;7.20;99.90
14409;DHT22;7289;50.706;4.992;2024-01-27T11:42:16;7.40;99.60
14409;DHT22;7289;50.706;4.992;2024-01-27T11:44:45;7.50;99.80
14409;DHT22;7289;50.706;4.992;2024-01-27T11:47:17;7.60;99.50
14409;DHT22;7289;50.706;4.992;2024-01-27T11:49:51;7.60;98.90
14409;DHT22;7289;50.706;4.992;2024-01-27T11:52:23;7.70;99.00
14409;DHT22;7289;50.706;4.992;2024-01-27T11:54:55;7.90;99.10
14409;DHT22;7289;50.706;4.992;2024-01-27T11:57:23;8.10;99.30
14409;DHT22;7289;50.706;4.992;2024-01-27T11:59:52;8.10;98.90
14409;DHT22;7289;50.706;4.992;2024-01-27T12:02:21;8.20;98.50
14409;DHT22;7289;50.706;4.992;2024-01-27T12:04:51;8.20;98.30
14409;DHT22;7289;50.706;4.992;2024-01-27T12:07:20;8.00;98.00
14409;DHT22;7289;50.706;4.992;2024-01-27T12:09:51;7.90;98.20
14409;DHT22;7289;50.706;4.992;2024-01-27T12:12:20;7.80;98.80
14409;DHT22;7289;50.706;4.992;2024-01-27T12:14:49;7.90;98.80
14409;DHT22;7289;50.706;4.992;2024-01-27T12:17:18;8.00;98.90
14409;DHT22;7289;50.706;4.992;2024-01-27T12:19:47;8.00;98.60
14409;DHT22;7289;50.706;4.992;2024-01-27T12:22:23;8.00;98.60
14409;DHT22;7289;50.706;4.992;2024-01-27T12:24:55;7.90;98.80
14409;DHT22;7289;50.706;4.992;2024-01-27T12:27:24;8.00;98.30
14409;DHT22;7289;50.706;4.992;2024-01-27T12:29:52;8.00;98.60
14409;DHT22;7289;50.706;4.992;2024-01-27T12:32:22;8.00;98.40
14409;DHT22;7289;50.706;4.992;2024-01-27T12:34:50;8.10;98.50
14409;DHT22;7289;50.706;4.992;2024-01-27T12:37:21;8.30;98.70
14409;DHT22;7289;50.706;4.992;2024-01-27T12:39:50;8.40;98.30
14409;DHT22;7289;50.706;4.992;2024-01-27T12:42:20;8.50;98.10
14409;DHT22;7289;50.706;4.992;2024-01-27T12:44:48;8.50;98.40
14409;DHT22;7289;50.706;4.992;2024-01-27T12:47:17;8.60;98.10
14409;DHT22;7289;50.706;4.992;2024-01-27T12:49:47;8.70;97.90
14409;DHT22;7289;50.706;4.992;2024-01-27T12:52:15;8.80;98.00
14409;DHT22;7289;50.706;4.992;2024-01-27T12:54:44;8.90;97.40
14409;DHT22;7289;50.706;4.992;2024-01-27T12:57:12;9.10;97.40
14409;DHT22;7289;50.706;4.992;2024-01-27T12:59:42;9.00;96.80
14409;DHT22;7289;50.706;4.992;2024-01-27T13:02:11;9.10;97.00
14409;DHT22;7289;50.706;4.992;2024-01-27T13:04:39;9.00;97.00
14409;DHT22;7289;50.706;4.992;2024-01-27T13:07:08;9.10;97.30
14409;DHT22;7289;50.706;4.992;2024-01-27T13:09:36;9.30;96.80
14409;DHT22;7289;50.706;4.992;2024-01-27T13:12:06;9.30;96.30
14409;DHT22;7289;50.706;4.992;2024-01-27T13:14:34;9.30;96.30
14409;DHT22;7289;50.706;4.992;2024-01-27T13:17:05;9.40;96.30
14409;DHT22;7289;50.706;4.992;2024-01-27T13:19:34;9.40;96.50
14409;DHT22;7289;50.706;4.992;2024-01-27T13:22:03;9.40;96.50
14409;DHT22;7289;50.706;4.992;2024-01-27T13:24:32;9.40;96.10
14409;DHT22;7289;50.706;4.992;2024-01-27T13:27:01;9.50;95.90
14409;DHT22;7289;50.706;4.992;2024-01-27T13:29:30;9.60;95.60
14409;DHT22;7289;50.706;4.992;2024-01-27T13:31:59;9.70;96.20
14409;DHT22;7289;50.706;4.992;2024-01-27T13:34:30;9.90;96.10
14409;DHT22;7289;50.706;4.992;2024-01-27T13:37:00;9.90;96.10
14409;DHT22;7289;50.706;4.992;2024-01-27T13:39:31;10.10;95.50
14409;DHT22;7289;50.706;4.992;2024-01-27T13:41:59;10.20;95.20
14409;DHT22;7289;50.706;4.992;2024-01-27T13:44:28;10.40;95.20
14409;DHT22;7289;50.706;4.992;2024-01-27T13:46:57;10.50;95.20
14409;DHT22;7289;50.706;4.992;2024-01-27T13:49:29;10.70;95.30
14409;DHT22;7289;50.706;4.992;2024-01-27T13:51:58;10.90;94.70
14409;DHT22;7289;50.706;4.992;2024-01-27T13:54:28;10.90;93.90
14409;DHT22;7289;50.706;4.992;2024-01-27T13:56:56;11.00;94.30
14409;DHT22;7289;50.706;4.992;2024-01-27T13:59:25;11.00;94.40
14409;DHT22;7289;50.706;4.992;2024-01-27T14:01:53;10.90;94.20
14409;DHT22;7289;50.706;4.992;2024-01-27T14:04:24;10.80;94.30
14409;DHT22;7289;50.706;4.992;2024-01-27T14:06:55;10.60;94.60
14409;DHT22;7289;50.706;4.992;2024-01-27T14:09:24;10.50;94.60
14409;DHT22;7289;50.706;4.992;2024-01-27T14:11:53;10.60;94.40
14409;DHT22;7289;50.706;4.992;2024-01-27T14:14:22;10.70;94.60
14409;DHT22;7289;50.706;4.992;2024-01-27T14:16:50;10.80;94.50
14409;DHT22;7289;50.706;4.992;2024-01-27T14:19:19;10.80;93.80
14409;DHT22;7289;50.706;4.992;2024-01-27T14:21:47;10.70;93.60
14409;DHT22;7289;50.706;4.992;2024-01-27T14:24:17;10.70;93.80
14409;DHT22;7289;50.706;4.992;2024-01-27T14:26:46;10.70;93.60
14409;DHT22;7289;50.706;4.992;2024-01-27T14:29:14;10.50;93.40
14409;DHT22;7289;50.706;4.992;2024-01-27T14:31:44;10.40;93.90
14409;DHT22;7289;50.706;4.992;2024-01-27T14:34:12;10.60;94.50
14409;DHT22;7289;50.706;4.992;2024-01-27T14:36:42;10.60;94.50
14409;DHT22;7289;50.706;4.992;2024-01-27T14:39:11;10.60;94.40
14409;DHT22;7289;50.706;4.992;2024-01-27T14:41:41;10.50;93.90
14409;DHT22;7289;50.706;4.992;2024-01-27T14:44:09;10.50;94.00
14409;DHT22;7289;50.706;4.992;2024-01-27T14:46:38;10.40;93.80
14409;DHT22;7289;50.706;4.992;2024-01-27T14:49:08;10.40;93.60
14409;DHT22;7289;50.706;4.992;2024-01-27T14:51:36;10.40;93.90
14409;DHT22;7289;50.706;4.992;2024-01-27T14:54:05;10.40;93.60
14409;DHT22;7289;50.706;4.992;2024-01-27T14:56:33;10.30;93.70
14409;DHT22;7289;50.706;4.992;2024-01-27T14:59:03;10.20;93.40
14409;DHT22;7289;50.706;4.992;2024-01-27T15:01:34;10.10;92.80
14409;DHT22;7289;50.706;4.992;2024-01-27T15:04:03;10.00;93.00
14409;DHT22;7289;50.706;4.992;2024-01-27T15:06:31;9.90;93.30
14409;DHT22;7289;50.706;4.992;2024-01-27T15:09:00;9.90;93.50
14409;DHT22;7289;50.706;4.992;2024-01-27T15:11:28;9.80;93.60
14409;DHT22;7289;50.706;4.992;2024-01-27T15:13:57;9.60;94.10
14409;DHT22;7289;50.706;4.992;2024-01-27T15:16:27;9.50;94.40
14409;DHT22;7289;50.706;4.992;2024-01-27T15:18:56;9.40;94.60
14409;DHT22;7289;50.706;4.992;2024-01-27T15:21:24;9.20;95.00
14409;DHT22;7289;50.706;4.992;2024-01-27T15:23:56;9.10;95.40
14409;DHT22;7289;50.706;4.992;2024-01-27T15:26:26;9.00;95.60
14409;DHT22;7289;50.706;4.992;2024-01-27T15:28:54;8.80;95.80
14409;DHT22;7289;50.706;4.992;2024-01-27T15:31:23;8.70;96.10
14409;DHT22;7289;50.706;4.992;2024-01-27T15:33:53;8.50;96.20
14409;DHT22;7289;50.706;4.992;2024-01-27T15:36:22;8.40;96.40
14409;DHT22;7289;50.706;4.992;2024-01-27T15:38:51;8.20;96.60
14409;DHT22;7289;50.706;4.992;2024-01-27T15:41:19;8.10;97.00
14409;DHT22;7289;50.706;4.992;2024-01-27T15:43:47;7.90;97.30
14409;DHT22;7289;50.706;4.992;2024-01-27T15:46:16;7.80;97.40
14409;DHT22;7289;50.706;4.992;2024-01-27T15:48:45;7.70;97.70
14409;DHT22;7289;50.706;4.992;2024-01-27T15:51:15;7.60;97.80
14409;DHT22;7289;50.706;4.992;2024-01-27T15:53:44;7.40;97.90
14409;DHT22;7289;50.706;4.992;2024-01-27T15:56:12;7.30;98.10
14409;DHT22;7289;50.706;4.992;2024-01-27T15:58:41;7.20;98.20
14409;DHT22;7289;50.706;4.992;2024-01-27T16:01:09;7.10;98.50
14409;DHT22;7289;50.706;4.992;2024-01-27T16:03:38;7.00;98.90
14409;DHT22;7289;50.706;4.992;2024-01-27T16:06:06;6.90;99.20
14409;DHT22;7289;50.706;4.992;2024-01-27T16:08:36;6.80;99.60
14409;DHT22;7289;50.706;4.992;2024-01-27T16:11:05;6.60;99.90